createdAt,value
2022-12-19T00:01:15.706Z,1.16
2022-12-19T00:03:54.543Z,0.81
2022-12-19T00:06:21.752Z,1.08
2022-12-19T00:08:50.203Z,0.97
2022-12-19T00:11:18.078Z,0.92
2022-12-19T00:13:44.915Z,1.04
2022-12-19T00:16:22.848Z,1.00
2022-12-19T00:18:51.019Z,0.85
2022-12-19T00:21:23.599Z,1.16
2022-12-19T00:23:50.448Z,1.38
2022-12-19T00:26:26.255Z,1.29
2022-12-19T00:28:55.945Z,0.96
2022-12-19T00:31:24.667Z,1.21
2022-12-19T00:33:51.372Z,1.24
2022-12-19T00:36:39.442Z,1.31
2022-12-19T00:39:08.443Z,1.43
2022-12-19T00:41:37.488Z,1.34
2022-12-19T00:44:11.972Z,1.30
2022-12-19T00:46:38.751Z,1.01
2022-12-19T00:49:05.935Z,1.47
2022-12-19T00:51:35.256Z,1.52
2022-12-19T00:54:03.920Z,1.24
2022-12-19T00:56:37.287Z,1.16
2022-12-19T00:59:05.367Z,0.96
2022-12-19T01:01:34.991Z,0.76
2022-12-19T01:06:49.685Z,0.87
2022-12-19T01:09:17.434Z,0.89
2022-12-19T01:11:44.783Z,0.91
2022-12-19T01:14:17.442Z,1.00
2022-12-19T01:16:47.648Z,1.16
2022-12-19T01:19:14.062Z,1.09
2022-12-19T01:21:40.449Z,1.24
2022-12-19T01:24:07.054Z,1.04
2022-12-19T01:26:33.404Z,1.04
2022-12-19T01:28:59.796Z,1.32
2022-12-19T01:31:26.291Z,1.39
2022-12-19T01:33:52.758Z,1.56
2022-12-19T01:36:20.955Z,1.32
2022-12-19T01:38:48.616Z,1.71
2022-12-19T01:41:15.091Z,1.46
2022-12-19T01:44:17.001Z,1.86
2022-12-19T01:46:50.015Z,1.57
2022-12-19T01:49:26.175Z,1.44
2022-12-19T01:51:56.491Z,1.20
2022-12-19T01:54:27.789Z,1.08
2022-12-19T01:56:57.792Z,1.60
2022-12-19T01:59:29.476Z,1.34
2022-12-19T02:02:02.996Z,1.57
2022-12-19T02:04:32.106Z,1.12
2022-12-19T02:06:59.862Z,1.29
2022-12-19T02:09:32.437Z,1.41
2022-12-19T02:11:59.949Z,1.45
2022-12-19T02:14:26.889Z,1.28
2022-12-19T02:17:34.841Z,0.95
2022-12-19T02:20:32.195Z,1.13
2022-12-19T02:23:26.606Z,1.16
2022-12-19T02:26:27.313Z,0.96
2022-12-19T02:29:10.822Z,0.80
2022-12-19T02:31:47.941Z,0.71
2022-12-19T02:34:52.605Z,0.94
2022-12-19T02:37:47.729Z,0.68
2022-12-19T02:40:21.399Z,0.65
2022-12-19T02:42:52.328Z,0.82
2022-12-19T02:45:27.115Z,0.75
2022-12-19T02:47:56.991Z,0.57
2022-12-19T02:50:23.457Z,0.78
2022-12-19T02:52:49.874Z,0.72
2022-12-19T02:55:21.645Z,0.65
2022-12-19T02:57:57.013Z,0.47
2022-12-19T03:00:25.381Z,0.73
2022-12-19T03:03:06.192Z,0.56
2022-12-19T03:05:53.944Z,0.99
2022-12-19T03:08:33.251Z,1.00
2022-12-19T03:11:07.770Z,1.06
2022-12-19T03:13:56.100Z,0.79
2022-12-19T03:16:23.482Z,1.37
2022-12-19T03:18:50.093Z,1.53
2022-12-19T03:21:23.440Z,1.59
2022-12-19T03:23:53.678Z,1.29
2022-12-19T03:26:24.776Z,0.91
2022-12-19T03:28:56.260Z,0.85
2022-12-19T03:31:26.960Z,0.79
2022-12-19T03:34:00.400Z,0.72
2022-12-19T03:36:41.315Z,0.47
2022-12-19T03:39:11.366Z,0.66
2022-12-19T03:41:39.509Z,0.40
2022-12-19T03:44:08.253Z,0.96
2022-12-19T03:46:41.542Z,0.76
2022-12-19T03:49:07.948Z,0.31
2022-12-19T03:51:46.211Z,0.25
2022-12-19T03:54:15.257Z,0.19
2022-12-19T03:56:50.362Z,0.26
2022-12-19T03:59:33.221Z,0.17
2022-12-19T04:02:01.751Z,0.46
2022-12-19T04:04:29.453Z,0.20
2022-12-19T04:06:57.691Z,0.35
2022-12-19T04:09:24.577Z,0.09
2022-12-19T04:11:54.548Z,0.57
2022-12-19T04:14:28.361Z,0.63
2022-12-19T04:17:11.605Z,0.23
2022-12-19T04:19:47.833Z,0.18
2022-12-19T04:22:22.752Z,0.06
2022-12-19T04:24:51.138Z,0.25
2022-12-19T04:27:18.780Z,0.24
2022-12-19T04:29:46.525Z,0.12
2022-12-19T04:32:13.909Z,0.67
2022-12-19T04:34:42.999Z,0.46
2022-12-19T04:37:10.793Z,0.64
2022-12-19T04:39:37.172Z,0.46
2022-12-19T04:42:03.694Z,0.61
2022-12-19T04:44:30.056Z,0.56
2022-12-19T04:46:56.571Z,0.35
2022-12-19T04:49:22.958Z,0.74
2022-12-19T04:51:50.751Z,0.69
2022-12-19T04:54:17.094Z,0.84
2022-12-19T04:56:43.863Z,0.81
2022-12-19T04:59:10.360Z,1.22
2022-12-19T05:01:36.959Z,1.20
2022-12-19T05:04:04.859Z,0.74
2022-12-19T05:06:31.851Z,0.72
2022-12-19T05:08:58.176Z,0.66
2022-12-19T05:11:24.980Z,0.63
2022-12-19T05:13:51.417Z,0.74
2022-12-19T05:16:18.777Z,1.21
2022-12-19T05:18:45.336Z,0.66
2022-12-19T05:21:12.142Z,0.65
2022-12-19T05:23:38.965Z,0.71
2022-12-19T05:26:06.183Z,0.52
2022-12-19T05:28:33.761Z,0.41
2022-12-19T05:31:04.154Z,0.41
2022-12-19T05:33:30.714Z,0.51
2022-12-19T05:35:57.378Z,0.68
2022-12-19T05:38:23.871Z,0.56
2022-12-19T05:40:50.308Z,0.37
2022-12-19T05:43:16.631Z,1.09
2022-12-19T05:45:43.044Z,0.73
2022-12-19T05:48:09.547Z,0.97
2022-12-19T05:50:36.188Z,1.29
2022-12-19T05:53:02.562Z,1.10
2022-12-19T05:55:28.882Z,0.91
2022-12-19T05:57:55.380Z,0.62
2022-12-19T06:00:21.762Z,0.96
2022-12-19T06:02:48.664Z,0.75
2022-12-19T06:05:15.449Z,0.94
2022-12-19T06:07:41.792Z,0.64
2022-12-19T06:10:08.233Z,0.85
2022-12-19T06:12:34.763Z,0.65
2022-12-19T06:15:01.164Z,0.56
2022-12-19T06:17:27.511Z,0.85
2022-12-19T06:19:54.085Z,0.59
2022-12-19T06:22:20.519Z,0.45
2022-12-19T06:24:46.944Z,0.74
2022-12-19T06:27:13.337Z,0.66
2022-12-19T06:29:39.706Z,0.48
2022-12-19T06:32:06.724Z,0.53
2022-12-19T06:37:21.876Z,0.88
2022-12-19T06:39:50.673Z,0.86
2022-12-19T06:42:17.321Z,0.75
2022-12-19T06:44:43.643Z,0.63
2022-12-19T06:47:10.065Z,0.51
2022-12-19T06:49:36.427Z,0.96
2022-12-19T06:52:08.882Z,0.83
2022-12-19T06:54:35.645Z,0.85
2022-12-19T06:57:02.534Z,0.91
2022-12-19T06:59:28.859Z,0.49
2022-12-19T07:02:24.612Z,0.79
2022-12-19T07:04:57.728Z,0.84
2022-12-19T07:07:24.091Z,1.20
2022-12-19T07:09:50.588Z,0.66
2022-12-19T07:12:17.069Z,0.88
2022-12-19T07:14:47.740Z,0.92
2022-12-19T07:17:18.117Z,0.63
2022-12-19T07:19:44.646Z,0.85
2022-12-19T07:22:11.657Z,0.68
2022-12-19T07:24:38.709Z,0.99
2022-12-19T07:27:08.152Z,1.16
2022-12-19T07:29:34.532Z,1.10
2022-12-19T07:32:01.292Z,1.42
2022-12-19T07:34:27.697Z,1.21
2022-12-19T07:36:54.350Z,1.52
2022-12-19T07:39:20.685Z,1.21
2022-12-19T07:41:47.293Z,1.15
2022-12-19T07:44:14.165Z,1.04
2022-12-19T07:46:40.479Z,1.29
2022-12-19T07:49:07.341Z,1.01
2022-12-19T07:51:33.835Z,1.22
2022-12-19T07:54:00.221Z,1.01
2022-12-19T07:56:26.843Z,0.99
2022-12-19T07:58:53.707Z,1.40
2022-12-19T08:01:20.320Z,1.08
2022-12-19T08:03:46.784Z,1.01
2022-12-19T08:06:13.363Z,1.10
2022-12-19T08:08:39.995Z,1.19
2022-12-19T08:11:07.737Z,1.16
2022-12-19T08:13:39.669Z,1.42
2022-12-19T08:16:09.641Z,1.31
2022-12-19T08:18:36.411Z,1.00
2022-12-19T08:21:02.996Z,1.17
2022-12-19T08:23:30.343Z,1.44
2022-12-19T08:26:05.384Z,1.53
2022-12-19T08:28:33.483Z,1.34
2022-12-19T08:31:16.120Z,1.53
2022-12-19T08:33:43.187Z,1.33
2022-12-19T08:36:12.349Z,1.40
2022-12-19T08:38:39.531Z,1.22
2022-12-19T08:41:06.336Z,1.19
2022-12-19T08:43:33.511Z,1.26
2022-12-19T08:46:00.393Z,1.48
2022-12-19T08:48:27.799Z,1.56
2022-12-19T08:50:59.222Z,1.65
2022-12-19T08:53:28.605Z,1.12
2022-12-19T08:55:56.039Z,1.31
2022-12-19T08:58:23.753Z,1.70
2022-12-19T09:00:56.464Z,1.93
2022-12-19T09:03:25.918Z,1.78
2022-12-19T09:06:06.952Z,1.63
2022-12-19T09:08:40.516Z,1.19
2022-12-19T09:11:10.108Z,1.00
2022-12-19T09:13:38.393Z,1.10
2022-12-19T09:16:08.524Z,1.54
2022-12-19T09:18:35.252Z,1.76
2022-12-19T09:21:02.973Z,1.55
2022-12-19T09:23:34.886Z,1.37
2022-12-19T09:26:10.272Z,1.85
2022-12-19T09:28:37.214Z,1.56
2022-12-19T09:31:26.943Z,1.24
2022-12-19T09:33:53.509Z,1.51
2022-12-19T09:36:22.923Z,1.82
2022-12-19T09:38:50.109Z,1.50
2022-12-19T09:41:25.593Z,1.85
2022-12-19T09:44:01.965Z,1.62
2022-12-19T09:46:50.863Z,1.70
2022-12-19T09:49:44.134Z,1.81
2022-12-19T09:52:46.868Z,1.67
2022-12-19T09:55:19.501Z,1.74
2022-12-19T09:57:58.955Z,1.95
2022-12-19T10:00:34.232Z,1.82
2022-12-19T10:03:09.245Z,1.78
2022-12-19T10:06:58.113Z,2.00
2022-12-19T10:09:17.077Z,2.29
2022-12-19T10:12:47.845Z,1.74
2022-12-19T10:14:40.896Z,2.04
2022-12-19T10:17:36.094Z,1.88
2022-12-19T10:20:16.016Z,2.18
2022-12-19T10:22:42.479Z,2.28
2022-12-19T10:25:17.817Z,2.28
2022-12-19T10:28:03.531Z,2.28
2022-12-19T10:30:36.523Z,1.94
2022-12-19T10:33:22.392Z,2.02
2022-12-19T10:36:01.861Z,2.54
2022-12-19T10:38:52.155Z,2.27
2022-12-19T10:41:31.544Z,2.36
2022-12-19T10:44:03.082Z,2.55
2022-12-19T10:46:41.978Z,2.46
2022-12-19T10:49:15.925Z,2.66
2022-12-19T10:51:52.557Z,2.45
2022-12-19T10:54:19.058Z,2.38
2022-12-19T10:56:45.484Z,2.35
2022-12-19T10:59:17.944Z,2.75
2022-12-19T11:01:45.213Z,2.62
2022-12-19T11:04:34.438Z,2.64
2022-12-19T11:07:00.926Z,2.51
2022-12-19T11:09:30.252Z,2.45
2022-12-19T11:15:53.689Z,2.91
2022-12-19T11:19:23.048Z,2.96
2022-12-19T11:26:32.528Z,2.48
2022-12-19T11:29:16.740Z,2.89
2022-12-19T11:29:36.907Z,2.46
2022-12-19T11:30:38.646Z,2.34
2022-12-19T11:30:39.085Z,2.51
2022-12-19T11:34:30.031Z,2.96
2022-12-19T11:37:18.264Z,2.56
2022-12-19T11:39:51.458Z,2.55
2022-12-19T11:42:29.595Z,2.76
2022-12-19T11:45:18.312Z,2.44
2022-12-19T11:47:44.740Z,2.38
2022-12-19T11:50:24.684Z,2.49
2022-12-19T11:53:29.447Z,2.64
2022-12-19T11:56:03.246Z,2.70
2022-12-19T11:58:29.695Z,2.49
2022-12-19T12:01:18.449Z,2.87
2022-12-19T12:04:15.893Z,3.24
2022-12-19T12:06:57.845Z,2.99
2022-12-19T12:11:35.007Z,3.32
2022-12-19T12:21:22.244Z,2.93
2022-12-19T12:31:01.793Z,2.67
2022-12-19T12:31:02.723Z,2.88
2022-12-19T12:31:17.059Z,2.72
2022-12-19T12:31:42.405Z,2.32
2022-12-19T12:31:54.262Z,2.94
2022-12-19T12:35:56.940Z,2.92
2022-12-19T12:38:18.635Z,2.85
2022-12-19T12:40:59.877Z,2.89
2022-12-19T12:43:51.461Z,3.23
2022-12-19T12:46:26.402Z,2.90
2022-12-19T12:49:02.423Z,2.61
2022-12-19T12:51:30.766Z,2.60
2022-12-19T12:54:05.170Z,2.47
2022-12-19T12:56:32.520Z,2.77
2022-12-19T12:59:01.586Z,3.16
2022-12-19T13:01:28.016Z,2.87
2022-12-19T13:03:59.169Z,2.53
2022-12-19T13:06:32.626Z,2.82
2022-12-19T13:09:20.217Z,2.61
2022-12-19T13:11:50.013Z,2.81
2022-12-19T13:14:34.728Z,2.99
2022-12-19T13:17:09.654Z,3.30
2022-12-19T13:19:58.395Z,3.27
2022-12-19T13:22:30.850Z,3.21
2022-12-19T13:24:59.691Z,3.02
2022-12-19T13:27:26.551Z,2.70
2022-12-19T13:29:55.993Z,2.89
2022-12-19T13:32:23.198Z,2.81
2022-12-19T13:35:05.858Z,3.46
2022-12-19T13:39:55.162Z,3.16
2022-12-19T13:40:42.971Z,2.95
2022-12-19T13:43:18.557Z,3.54
2022-12-19T13:45:52.003Z,3.54
2022-12-19T13:48:26.562Z,3.50
2022-12-19T13:50:54.503Z,3.24
2022-12-19T13:53:24.787Z,3.48
2022-12-19T13:55:54.997Z,3.24
2022-12-19T13:58:28.837Z,2.95
2022-12-19T14:01:00.716Z,3.38
2022-12-19T14:03:39.077Z,3.12
2022-12-19T14:06:18.647Z,3.56
2022-12-19T14:08:47.966Z,3.56
2022-12-19T14:12:20.575Z,3.12
2022-12-19T14:14:29.762Z,3.00
2022-12-19T14:17:06.088Z,3.29
2022-12-19T14:19:42.266Z,3.03
2022-12-19T14:22:25.767Z,3.70
2022-12-19T14:28:15.196Z,3.89
2022-12-19T14:28:17.071Z,3.44
2022-12-19T14:30:55.589Z,2.96
2022-12-19T14:33:44.991Z,2.83
2022-12-19T14:36:28.692Z,2.72
2022-12-19T14:39:27.304Z,3.15
2022-12-19T14:41:45.704Z,2.94
2022-12-19T14:52:35.387Z,3.14
2022-12-19T14:54:02.327Z,3.61
2022-12-19T14:54:29.348Z,2.96
2022-12-19T14:54:31.212Z,3.06
2022-12-19T14:56:40.632Z,3.08
2022-12-19T14:59:04.432Z,2.94
2022-12-19T15:01:34.450Z,3.02
2022-12-19T15:04:51.294Z,2.94
2022-12-19T15:07:06.768Z,2.86
2022-12-19T15:11:07.819Z,3.00
2022-12-19T15:14:47.193Z,3.15
2022-12-19T15:16:06.222Z,3.58
2022-12-19T15:18:32.638Z,3.45
2022-12-19T15:21:01.447Z,3.40
2022-12-19T15:23:29.086Z,3.36
2022-12-19T15:26:06.100Z,3.43
2022-12-19T15:28:49.909Z,3.24
2022-12-19T15:31:42.068Z,3.05
2022-12-19T15:34:36.242Z,2.95
2022-12-19T15:37:04.974Z,3.66
2022-12-19T15:39:31.379Z,3.46
2022-12-19T15:42:00.164Z,3.26
2022-12-19T15:44:32.991Z,3.69
2022-12-19T15:47:00.824Z,3.19
2022-12-19T15:49:27.637Z,3.75
2022-12-19T15:51:53.994Z,3.79
2022-12-19T15:57:22.402Z,3.51
2022-12-19T15:59:49.265Z,3.47
2022-12-19T16:02:22.712Z,3.64
2022-12-19T16:04:50.824Z,3.32
2022-12-19T16:07:20.498Z,3.33
2022-12-19T16:09:47.495Z,3.12
2022-12-19T16:12:16.531Z,2.94
2022-12-19T16:14:44.375Z,2.88
2022-12-19T16:17:22.381Z,3.22
2022-12-19T16:19:49.416Z,3.21
2022-12-19T16:22:22.005Z,3.09
2022-12-19T16:24:50.048Z,3.20
2022-12-19T16:27:30.134Z,3.50
2022-12-19T16:30:02.669Z,3.35
2022-12-19T16:32:29.128Z,3.15
2022-12-19T16:34:55.568Z,3.10
2022-12-19T16:37:25.705Z,3.45
2022-12-19T16:39:55.018Z,3.18
2022-12-19T16:42:21.855Z,3.05
2022-12-19T16:44:48.300Z,3.16
2022-12-19T16:47:17.256Z,3.42
2022-12-19T16:49:44.802Z,3.28
2022-12-19T16:52:11.304Z,3.30
2022-12-19T16:54:37.629Z,3.11
2022-12-19T16:57:04.644Z,3.09
2022-12-19T16:59:41.222Z,3.24
2022-12-19T17:02:36.308Z,3.12
2022-12-19T17:05:02.857Z,3.44
2022-12-19T17:07:31.648Z,3.39
2022-12-19T17:09:58.043Z,3.41
2022-12-19T17:12:26.867Z,3.34
2022-12-19T17:14:53.569Z,3.32
2022-12-19T17:17:26.310Z,3.48
2022-12-19T17:19:53.192Z,3.90
2022-12-19T17:22:19.827Z,3.97
2022-12-19T17:24:47.612Z,3.67
2022-12-19T17:27:14.723Z,3.78
2022-12-19T17:29:41.104Z,3.68
2022-12-19T17:32:11.776Z,3.52
2022-12-19T17:34:38.539Z,3.51
2022-12-19T17:37:05.225Z,3.67
2022-12-19T17:39:34.433Z,3.86
2022-12-19T17:42:22.458Z,4.02
2022-12-19T17:44:48.880Z,3.92
2022-12-19T17:47:16.786Z,3.74
2022-12-19T17:49:43.774Z,3.60
2022-12-19T17:52:16.065Z,3.39
2022-12-19T17:54:43.059Z,3.41
2022-12-19T17:57:16.799Z,3.26
2022-12-19T17:59:44.246Z,3.81
2022-12-19T18:02:28.877Z,3.61
2022-12-19T18:04:55.523Z,3.65
2022-12-19T18:07:21.972Z,3.92
2022-12-19T18:09:48.452Z,3.73
2022-12-19T18:12:15.051Z,3.56
2022-12-19T18:14:41.450Z,3.70
2022-12-19T18:17:11.817Z,3.82
2022-12-19T18:19:38.303Z,4.12
2022-12-19T18:22:11.648Z,3.82
2022-12-19T18:24:37.999Z,4.04
2022-12-19T18:27:04.803Z,4.34
2022-12-19T18:29:31.245Z,3.93
2022-12-19T18:31:58.235Z,4.05
2022-12-19T18:34:28.892Z,3.71
2022-12-19T18:36:55.356Z,3.85
2022-12-19T18:39:26.777Z,3.91
2022-12-19T18:41:53.452Z,3.75
2022-12-19T18:44:20.747Z,4.13
2022-12-19T18:46:49.975Z,4.10
2022-12-19T18:49:17.718Z,3.86
2022-12-19T18:51:44.880Z,3.97
2022-12-19T18:54:16.775Z,4.01
2022-12-19T18:56:43.144Z,4.37
2022-12-19T18:59:09.685Z,4.34
2022-12-19T19:01:40.660Z,4.12
2022-12-19T19:04:07.411Z,4.12
2022-12-19T19:06:37.807Z,4.00
2022-12-19T19:09:14.368Z,4.39
2022-12-19T19:11:40.720Z,4.02
2022-12-19T19:14:07.152Z,3.98
2022-12-19T19:16:33.682Z,4.03
2022-12-19T19:19:00.015Z,4.10
2022-12-19T19:21:30.208Z,3.83
2022-12-19T19:24:03.870Z,4.04
2022-12-19T19:26:30.286Z,3.96
2022-12-19T19:28:56.595Z,3.80
2022-12-19T19:31:27.044Z,3.78
2022-12-19T19:34:06.577Z,3.95
2022-12-19T19:36:35.239Z,3.75
2022-12-19T19:39:04.749Z,4.14
2022-12-19T19:41:31.154Z,4.03
2022-12-19T19:43:57.947Z,4.06
2022-12-19T19:46:24.438Z,4.16
2022-12-19T19:48:50.945Z,4.18
2022-12-19T19:51:18.602Z,4.07
2022-12-19T19:53:44.995Z,3.96
2022-12-19T19:56:11.384Z,3.89
2022-12-19T19:58:38.133Z,3.98
2022-12-19T20:01:12.858Z,4.18
2022-12-19T20:03:41.024Z,4.02
2022-12-19T20:06:08.459Z,4.17
2022-12-19T20:08:39.748Z,4.18
2022-12-19T20:11:08.741Z,4.38
2022-12-19T20:13:35.232Z,4.82
2022-12-19T20:16:08.081Z,4.66
2022-12-19T20:18:35.833Z,4.42
2022-12-19T20:21:04.564Z,4.64
2022-12-19T20:23:33.067Z,4.52
2022-12-19T20:26:03.126Z,4.51
2022-12-19T20:28:29.581Z,4.56
2022-12-19T20:30:57.234Z,4.84
2022-12-19T20:33:23.744Z,4.80
2022-12-19T20:35:50.085Z,4.98
2022-12-19T20:38:16.962Z,4.82
2022-12-19T20:40:43.345Z,4.46
2022-12-19T20:43:09.923Z,4.45
2022-12-19T20:45:36.587Z,4.27
2022-12-19T20:48:03.286Z,4.52
2022-12-19T20:50:29.671Z,4.50
2022-12-19T20:52:56.105Z,4.53
2022-12-19T20:55:22.509Z,4.76
2022-12-19T20:57:48.956Z,4.66
2022-12-19T21:00:15.884Z,4.43
2022-12-19T21:03:17.361Z,4.34
2022-12-19T21:05:28.996Z,4.32
2022-12-19T21:07:55.431Z,4.36
2022-12-19T21:10:21.877Z,4.52
2022-12-19T21:12:48.452Z,4.45
2022-12-19T21:15:15.466Z,4.58
2022-12-19T21:17:42.045Z,4.36
2022-12-19T21:20:08.879Z,4.18
2022-12-19T21:22:35.218Z,3.97
2022-12-19T21:25:01.589Z,4.12
2022-12-19T21:27:28.022Z,4.08
2022-12-19T21:29:54.407Z,4.29
2022-12-19T21:32:20.746Z,4.56
2022-12-19T21:34:47.341Z,4.35
2022-12-19T21:37:13.655Z,4.36
2022-12-19T21:39:39.981Z,4.88
2022-12-19T21:42:06.439Z,4.83
2022-12-19T21:44:32.793Z,4.83
2022-12-19T21:46:59.269Z,5.03
2022-12-19T21:49:25.730Z,4.89
2022-12-19T21:51:52.217Z,5.07
2022-12-19T21:54:18.654Z,5.12
2022-12-19T21:56:44.985Z,4.97
2022-12-19T21:59:14.489Z,5.15
2022-12-19T22:01:42.802Z,4.79
2022-12-19T22:04:18.168Z,4.82
2022-12-19T22:06:44.722Z,4.99
2022-12-19T22:09:14.104Z,4.60
2022-12-19T22:11:40.704Z,4.72
2022-12-19T22:14:07.517Z,4.54
2022-12-19T22:16:34.840Z,4.39
2022-12-19T22:19:01.819Z,4.23
2022-12-19T22:21:28.511Z,4.35
2022-12-19T22:23:59.723Z,4.86
2022-12-19T22:26:27.722Z,4.98
2022-12-19T22:28:55.645Z,4.95
2022-12-19T22:31:25.279Z,4.64
2022-12-19T22:33:54.267Z,4.51
2022-12-19T22:36:27.676Z,4.86
2022-12-19T22:38:55.273Z,4.61
2022-12-19T22:41:21.889Z,4.56
2022-12-19T22:43:48.411Z,4.61
2022-12-19T22:46:16.295Z,4.41
2022-12-19T22:48:43.749Z,4.56
2022-12-19T22:51:10.732Z,4.41
2022-12-19T22:53:37.685Z,4.33
2022-12-19T22:56:12.410Z,4.25
2022-12-19T22:58:41.659Z,4.29
2022-12-19T23:01:14.837Z,4.50
2022-12-19T23:03:42.516Z,4.38
2022-12-19T23:06:09.197Z,4.39
2022-12-19T23:08:35.961Z,4.44
2022-12-19T23:11:03.351Z,4.32
2022-12-19T23:13:29.730Z,4.26
2022-12-19T23:15:57.300Z,4.29
2022-12-19T23:18:23.907Z,4.34
2022-12-19T23:21:02.241Z,5.03
2022-12-19T23:23:29.466Z,4.93
2022-12-19T23:25:55.870Z,4.87
2022-12-19T23:28:22.421Z,4.65
2022-12-19T23:30:49.000Z,4.61
2022-12-19T23:33:16.061Z,5.06
2022-12-19T23:35:43.553Z,5.35
2022-12-19T23:38:09.976Z,4.99
2022-12-19T23:40:36.912Z,4.89
2022-12-19T23:43:03.385Z,5.26
2022-12-19T23:45:29.851Z,5.56
2022-12-19T23:47:56.196Z,5.15
2022-12-19T23:50:22.694Z,4.93
2022-12-19T23:52:49.029Z,4.77
2022-12-19T23:55:15.553Z,4.71
2022-12-19T23:57:41.960Z,5.16
